sensor_id;sensor_type;location;lat;lon;timestamp;pressure;altitude;pressure_sealevel;temperature;humidity
71772;BME280;59606;52.138;5.424;2024-01-27T00:00:18;103505.34;;;2.52;100.00
71772;BME280;59606;52.138;5.424;2024-01-27T00:02:45;103509.50;;;2.47;100.00
71772;BME280;59606;52.138;5.424;2024-01-27T00:05:11;103514.66;;;2.47;100.00
71772;BME280;59606;52.138;5.424;2024-01-27T00:07:38;103522.31;;;2.44;100.00
71772;BME280;59606;52.138;5.424;2024-01-27T00:10:06;103520.53;;;2.41;100.00
71772;BME280;59606;52.138;5.424;2024-01-27T00:12:33;103523.94;;;2.40;100.00
71772;BME280;59606;52.138;5.424;2024-01-27T00:15:00;103517.09;;;2.41;100.00
71772;BME280;59606;52.138;5.424;2024-01-27T00:17:26;103520.50;;;2.40;100.00
71772;BME280;59606;52.138;5.424;2024-01-27T00:19:54;103529.09;;;2.40;100.00
71772;BME280;59606;52.138;5.424;2024-01-27T00:22:21;103520.50;;;2.40;100.00
71772;BME280;59606;52.138;5.424;2024-01-27T00:24:47;103515.34;;;2.40;100.00
71772;BME280;59606;52.138;5.424;2024-01-27T00:27:14;103523.00;;;2.36;100.00
71772;BME280;59606;52.138;5.424;2024-01-27T00:29:40;103526.44;;;2.35;100.00
71772;BME280;59606;52.138;5.424;2024-01-27T00:32:07;103517.78;;;2.33;100.00
71772;BME280;59606;52.138;5.424;2024-01-27T00:34:33;103517.78;;;2.33;100.00
71772;BME280;59606;52.138;5.424;2024-01-27T00:37:00;103523.78;;;2.32;100.00
71772;BME280;59606;52.138;5.424;2024-01-27T00:39:27;103528.06;;;2.32;100.00
71772;BME280;59606;52.138;5.424;2024-01-27T00:41:53;103522.00;;;2.30;100.00
71772;BME280;59606;52.138;5.424;2024-01-27T00:44:22;103521.03;;;2.25;100.00
71772;BME280;59606;52.138;5.424;2024-01-27T00:46:48;103525.28;;;2.24;100.00
71772;BME280;59606;52.138;5.424;2024-01-27T00:49:15;103512.41;;;2.23;100.00
71772;BME280;59606;52.138;5.424;2024-01-27T00:51:41;103521.78;;;2.21;100.00
71772;BME280;59606;52.138;5.424;2024-01-27T00:54:08;103509.75;;;2.18;100.00
71772;BME280;59606;52.138;5.424;2024-01-27T00:56:35;103506.19;;;2.15;100.00
71772;BME280;59606;52.138;5.424;2024-01-27T00:59:01;103513.06;;;2.14;100.00
71772;BME280;59606;52.138;5.424;2024-01-27T01:01:28;103524.16;;;2.11;100.00
71772;BME280;59606;52.138;5.424;2024-01-27T01:03:54;103518.97;;;2.10;100.00
71772;BME280;59606;52.138;5.424;2024-01-27T01:06:21;103518.09;;;2.09;100.00
71772;BME280;59606;52.138;5.424;2024-01-27T01:08:48;103528.31;;;2.06;100.00
71772;BME280;59606;52.138;5.424;2024-01-27T01:11:14;103529.16;;;2.05;100.00
71772;BME280;59606;52.138;5.424;2024-01-27T01:13:41;103530.84;;;2.05;100.00
71772;BME280;59606;52.138;5.424;2024-01-27T01:16:08;103535.06;;;2.01;100.00
71772;BME280;59606;52.138;5.424;2024-01-27T01:18:34;103534.16;;;2.01;100.00
71772;BME280;59606;52.138;5.424;2024-01-27T01:21:01;103539.28;;;1.99;100.00
71772;BME280;59606;52.138;5.424;2024-01-27T01:23:28;103533.28;;;1.99;100.00
71772;BME280;59606;52.138;5.424;2024-01-27T01:25:54;103547.75;;;1.95;100.00
71772;BME280;59606;52.138;5.424;2024-01-27T01:28:21;103539.19;;;1.95;100.00
71772;BME280;59606;52.138;5.424;2024-01-27T01:30:47;103533.13;;;1.93;100.00
71772;BME280;59606;52.138;5.424;2024-01-27T01:33:16;103535.63;;;1.91;100.00
71772;BME280;59606;52.138;5.424;2024-01-27T01:35:42;103528.75;;;1.88;100.00
71772;BME280;59606;52.138;5.424;2024-01-27T01:38:09;103523.53;;;1.87;100.00
71772;BME280;59606;52.138;5.424;2024-01-27T01:40:35;103527.81;;;1.85;100.00
71772;BME280;59606;52.138;5.424;2024-01-27T01:43:02;103530.31;;;1.83;100.00
71772;BME280;59606;52.138;5.424;2024-01-27T01:45:30;103521.75;;;1.83;100.00
71772;BME280;59606;52.138;5.424;2024-01-27T01:47:57;103528.53;;;1.81;100.00
71772;BME280;59606;52.138;5.424;2024-01-27T01:50:24;103533.63;;;1.78;100.00
71772;BME280;59606;52.138;5.424;2024-01-27T01:52:50;103535.34;;;1.79;100.00
71772;BME280;59606;52.138;5.424;2024-01-27T01:55:19;103537.88;;;1.77;100.00
71772;BME280;59606;52.138;5.424;2024-01-27T01:57:46;103542.97;;;1.76;100.00
71772;BME280;59606;52.138;5.424;2024-01-27T02:00:13;103545.50;;;1.74;100.00
71772;BME280;59606;52.138;5.424;2024-01-27T02:02:43;103553.19;;;1.73;100.00
71772;BME280;59606;52.138;5.424;2024-01-27T02:05:10;103554.88;;;1.72;100.00
71772;BME280;59606;52.138;5.424;2024-01-27T02:07:37;103541.13;;;1.70;100.00
71772;BME280;59606;52.138;5.424;2024-01-27T02:10:05;103542.88;;;1.71;100.00
71772;BME280;59606;52.138;5.424;2024-01-27T02:12:32;103540.31;;;1.71;100.00
71772;BME280;59606;52.138;5.424;2024-01-27T02:14:58;103533.31;;;1.67;100.00
71772;BME280;59606;52.138;5.424;2024-01-27T02:17:25;103548.72;;;1.65;100.00
71772;BME280;59606;52.138;5.424;2024-01-27T02:19:52;103540.06;;;1.62;100.00
71772;BME280;59606;52.138;5.424;2024-01-27T02:22:18;103540.00;;;1.60;100.00
71772;BME280;59606;52.138;5.424;2024-01-27T02:24:45;103537.41;;;1.59;100.00
71772;BME280;59606;52.138;5.424;2024-01-27T02:27:12;103539.91;;;1.57;100.00
71772;BME280;59606;52.138;5.424;2024-01-27T02:29:39;103538.19;;;1.56;100.00
71772;BME280;59606;52.138;5.424;2024-01-27T02:32:06;103539.81;;;1.53;100.00
71772;BME280;59606;52.138;5.424;2024-01-27T02:34:32;103544.09;;;1.52;100.00
71772;BME280;59606;52.138;5.424;2024-01-27T02:36:59;103543.22;;;1.52;100.00
71772;BME280;59606;52.138;5.424;2024-01-27T02:39:26;103543.22;;;1.52;100.00
71772;BME280;59606;52.138;5.424;2024-01-27T02:41:52;103534.59;;;1.50;100.00
71772;BME280;59606;52.138;5.424;2024-01-27T02:44:19;103539.72;;;1.50;100.00
71772;BME280;59606;52.138;5.424;2024-01-27T02:46:45;103545.72;;;1.49;100.00
71772;BME280;59606;52.138;5.424;2024-01-27T02:49:12;103539.66;;;1.47;100.00
71772;BME280;59606;52.138;5.424;2024-01-27T02:51:38;103553.34;;;1.47;100.00
71772;BME280;59606;52.138;5.424;2024-01-27T02:54:05;103554.16;;;1.45;100.00
71772;BME280;59606;52.138;5.424;2024-01-27T02:56:32;103547.31;;;1.45;100.00
71772;BME280;59606;52.138;5.424;2024-01-27T02:58:58;103548.19;;;1.46;100.00
71772;BME280;59606;52.138;5.424;2024-01-27T03:01:25;103549.91;;;1.45;100.00
71772;BME280;59606;52.138;5.424;2024-01-27T03:03:51;103548.13;;;1.44;100.00
71772;BME280;59606;52.138;5.424;2024-01-27T03:06:18;103545.53;;;1.42;100.00
71772;BME280;59606;52.138;5.424;2024-01-27T03:08:45;103551.50;;;1.41;100.00
71772;BME280;59606;52.138;5.424;2024-01-27T03:11:11;103551.50;;;1.41;100.00
71772;BME280;59606;52.138;5.424;2024-01-27T03:13:38;103555.72;;;1.39;100.00
71772;BME280;59606;52.138;5.424;2024-01-27T03:16:11;103548.84;;;1.38;100.00
71772;BME280;59606;52.138;5.424;2024-01-27T03:18:38;103548.84;;;1.38;100.00
71772;BME280;59606;52.138;5.424;2024-01-27T03:21:06;103551.44;;;1.38;100.00
71772;BME280;59606;52.138;5.424;2024-01-27T03:23:32;103556.56;;;1.38;100.00
71772;BME280;59606;52.138;5.424;2024-01-27T03:25:59;103545.38;;;1.36;100.00
71772;BME280;59606;52.138;5.424;2024-01-27T03:28:25;103541.97;;;1.37;100.00
71772;BME280;59606;52.138;5.424;2024-01-27T03:30:52;103545.44;;;1.38;100.00
71772;BME280;59606;52.138;5.424;2024-01-27T03:33:19;103545.44;;;1.38;100.00
71772;BME280;59606;52.138;5.424;2024-01-27T03:35:45;103536.03;;;1.38;100.00
71772;BME280;59606;52.138;5.424;2024-01-27T03:38:12;103543.72;;;1.38;100.00
71772;BME280;59606;52.138;5.424;2024-01-27T03:40:38;103544.59;;;1.39;100.00
71772;BME280;59606;52.138;5.424;2024-01-27T03:43:05;103541.09;;;1.37;100.00
71772;BME280;59606;52.138;5.424;2024-01-27T03:45:31;103546.22;;;1.37;100.00
71772;BME280;59606;52.138;5.424;2024-01-27T03:47:58;103554.00;;;1.38;100.00
71772;BME280;59606;52.138;5.424;2024-01-27T03:50:25;103544.53;;;1.37;100.00
71772;BME280;59606;52.138;5.424;2024-01-27T03:52:51;103551.38;;;1.37;100.00
71772;BME280;59606;52.138;5.424;2024-01-27T03:55:18;103564.28;;;1.40;100.00
71772;BME280;59606;52.138;5.424;2024-01-27T03:57:44;103564.28;;;1.40;100.00
71772;BME280;59606;52.138;5.424;2024-01-27T04:00:11;103565.13;;;1.39;100.00
71772;BME280;59606;52.138;5.424;2024-01-27T04:02:38;103559.16;;;1.40;100.00
71772;BME280;59606;52.138;5.424;2024-01-27T04:05:05;103565.22;;;1.42;100.00
71772;BME280;59606;52.138;5.424;2024-01-27T04:07:32;103559.25;;;1.43;100.00
71772;BME280;59606;52.138;5.424;2024-01-27T04:09:58;103558.47;;;1.46;100.00
71772;BME280;59606;52.138;5.424;2024-01-27T04:12:25;103556.75;;;1.46;100.00
71772;BME280;59606;52.138;5.424;2024-01-27T04:14:52;103566.16;;;1.46;100.00
71772;BME280;59606;52.138;5.424;2024-01-27T04:17:18;103567.00;;;1.45;100.00
71772;BME280;59606;52.138;5.424;2024-01-27T04:19:45;103566.09;;;1.42;100.00
71772;BME280;59606;52.138;5.424;2024-01-27T04:22:11;103571.22;;;1.42;100.00
71772;BME280;59606;52.138;5.424;2024-01-27T04:24:38;103568.63;;;1.41;100.00
71772;BME280;59606;52.138;5.424;2024-01-27T04:27:05;103562.50;;;1.37;100.00
71772;BME280;59606;52.138;5.424;2024-01-27T04:29:32;103564.22;;;1.37;100.00
71772;BME280;59606;52.138;5.424;2024-01-27T04:31:58;103561.63;;;1.35;100.00
71772;BME280;59606;52.138;5.424;2024-01-27T04:34:25;103569.31;;;1.35;100.00
71772;BME280;59606;52.138;5.424;2024-01-27T04:36:51;103577.88;;;1.36;100.00
71772;BME280;59606;52.138;5.424;2024-01-27T04:39:18;103575.28;;;1.34;100.00
71772;BME280;59606;52.138;5.424;2024-01-27T04:41:45;103582.09;;;1.34;100.00
71772;BME280;59606;52.138;5.424;2024-01-27T04:44:11;103578.59;;;1.30;100.00
71772;BME280;59606;52.138;5.424;2024-01-27T04:46:38;103576.81;;;1.28;100.00
71772;BME280;59606;52.138;5.424;2024-01-27T04:49:04;103569.03;;;1.25;100.00
71772;BME280;59606;52.138;5.424;2024-01-27T04:51:31;103574.09;;;1.23;100.00
71772;BME280;59606;52.138;5.424;2024-01-27T04:53:58;103576.66;;;1.22;100.00
71772;BME280;59606;52.138;5.424;2024-01-27T04:56:24;103573.22;;;1.21;100.00
71772;BME280;59606;52.138;5.424;2024-01-27T04:58:51;103574.00;;;1.20;100.00
71772;BME280;59606;52.138;5.424;2024-01-27T05:01:17;103573.16;;;1.20;100.00
71772;BME280;59606;52.138;5.424;2024-01-27T05:03:44;103584.34;;;1.22;100.00
71772;BME280;59606;52.138;5.424;2024-01-27T05:06:11;103579.22;;;1.22;100.00
71772;BME280;59606;52.138;5.424;2024-01-27T05:08:38;103575.81;;;1.23;100.00
71772;BME280;59606;52.138;5.424;2024-01-27T05:11:06;103571.53;;;1.23;100.00
71772;BME280;59606;52.138;5.424;2024-01-27T05:13:32;103571.50;;;1.22;100.00
71772;BME280;59606;52.138;5.424;2024-01-27T05:15:59;103575.88;;;1.24;100.00
71772;BME280;59606;52.138;5.424;2024-01-27T05:18:25;103575.88;;;1.24;100.00
71772;BME280;59606;52.138;5.424;2024-01-27T05:20:52;103565.63;;;1.26;100.00
71772;BME280;59606;52.138;5.424;2024-01-27T05:23:18;103556.28;;;1.28;100.00
71772;BME280;59606;52.138;5.424;2024-01-27T05:25:45;103549.38;;;1.27;100.00
71772;BME280;59606;52.138;5.424;2024-01-27T05:28:12;103551.84;;;1.24;100.00
71772;BME280;59606;52.138;5.424;2024-01-27T05:30:38;103550.97;;;1.22;100.00
71772;BME280;59606;52.138;5.424;2024-01-27T05:33:05;103553.56;;;1.23;100.00
71772;BME280;59606;52.138;5.424;2024-01-27T05:35:31;103552.66;;;1.21;100.00
71772;BME280;59606;52.138;5.424;2024-01-27T05:37:58;103550.91;;;1.20;100.00
71772;BME280;59606;52.138;5.424;2024-01-27T05:40:24;103548.41;;;1.22;100.00
71772;BME280;59606;52.138;5.424;2024-01-27T05:42:51;103550.91;;;1.20;100.00
71772;BME280;59606;52.138;5.424;2024-01-27T05:45:17;103556.00;;;1.18;100.00
71772;BME280;59606;52.138;5.424;2024-01-27T05:47:44;103545.75;;;1.18;100.00
71772;BME280;59606;52.138;5.424;2024-01-27T05:50:10;103547.47;;;1.20;100.00
71772;BME280;59606;52.138;5.424;2024-01-27T05:52:37;103553.38;;;1.17;100.00
71772;BME280;59606;52.138;5.424;2024-01-27T05:55:04;103550.03;;;1.18;100.00
71772;BME280;59606;52.138;5.424;2024-01-27T05:57:33;103553.38;;;1.17;100.00
71772;BME280;59606;52.138;5.424;2024-01-27T06:00:00;103560.28;;;1.18;100.00
71772;BME280;59606;52.138;5.424;2024-01-27T06:02:26;103553.34;;;1.15;100.00
71772;BME280;59606;52.138;5.424;2024-01-27T06:04:53;103549.19;;;1.19;100.00
71772;BME280;59606;52.138;5.424;2024-01-27T06:07:19;103549.19;;;1.19;100.00
71772;BME280;59606;52.138;5.424;2024-01-27T06:09:46;103548.31;;;1.18;100.00
71772;BME280;59606;52.138;5.424;2024-01-27T06:12:13;103557.75;;;1.20;100.00
71772;BME280;59606;52.138;5.424;2024-01-27T06:14:40;103550.88;;;1.18;100.00
71772;BME280;59606;52.138;5.424;2024-01-27T06:17:07;103555.19;;;1.20;100.00
71772;BME280;59606;52.138;5.424;2024-01-27T06:19:33;103562.88;;;1.20;100.00
71772;BME280;59606;52.138;5.424;2024-01-27T06:22:00;103559.47;;;1.21;100.00
71772;BME280;59606;52.138;5.424;2024-01-27T06:24:30;103559.47;;;1.21;100.00
71772;BME280;59606;52.138;5.424;2024-01-27T06:26:57;103557.75;;;1.20;100.00
71772;BME280;59606;52.138;5.424;2024-01-27T06:29:24;103561.19;;;1.20;100.00
71772;BME280;59606;52.138;5.424;2024-01-27T06:31:52;103558.63;;;1.20;100.00
71772;BME280;59606;52.138;5.424;2024-01-27T06:34:18;103561.19;;;1.20;100.00
71772;BME280;59606;52.138;5.424;2024-01-27T06:36:45;103563.66;;;1.17;100.00
71772;BME280;59606;52.138;5.424;2024-01-27T06:39:12;103565.38;;;1.16;100.00
71772;BME280;59606;52.138;5.424;2024-01-27T06:41:38;103561.94;;;1.16;100.00
71772;BME280;59606;52.138;5.424;2024-01-27T06:44:05;103564.56;;;1.17;100.00
71772;BME280;59606;52.138;5.424;2024-01-27T06:46:32;103562.00;;;1.17;100.00
71772;BME280;59606;52.138;5.424;2024-01-27T06:48:59;103557.66;;;1.16;100.00
71772;BME280;59606;52.138;5.424;2024-01-27T06:51:25;103560.22;;;1.16;100.00
71772;BME280;59606;52.138;5.424;2024-01-27T06:53:52;103557.56;;;1.13;100.00
71772;BME280;59606;52.138;5.424;2024-01-27T06:56:18;103562.69;;;1.12;100.00
71772;BME280;59606;52.138;5.424;2024-01-27T06:58:45;103568.59;;;1.09;100.00
71772;BME280;59606;52.138;5.424;2024-01-27T07:01:12;103565.94;;;1.06;100.00
71772;BME280;59606;52.138;5.424;2024-01-27T07:03:38;103563.34;;;1.05;100.00
71772;BME280;59606;52.138;5.424;2024-01-27T07:06:06;103567.53;;;1.03;100.00
71772;BME280;59606;52.138;5.424;2024-01-27T07:08:32;103569.22;;;1.01;100.00
71772;BME280;59606;52.138;5.424;2024-01-27T07:11:03;103575.16;;;1.00;100.00
71772;BME280;59606;52.138;5.424;2024-01-27T07:13:30;103581.06;;;0.97;100.00
71772;BME280;59606;52.138;5.424;2024-01-27T07:15:57;103584.53;;;0.98;100.00
71772;BME280;59606;52.138;5.424;2024-01-27T07:18:24;103591.25;;;0.94;100.00
71772;BME280;59606;52.138;5.424;2024-01-27T07:20:51;103600.63;;;0.93;100.00
71772;BME280;59606;52.138;5.424;2024-01-27T07:23:18;103592.91;;;0.92;100.00
71772;BME280;59606;52.138;5.424;2024-01-27T07:25:44;103597.16;;;0.91;100.00
71772;BME280;59606;52.138;5.424;2024-01-27T07:28:11;103591.19;;;0.92;100.00
71772;BME280;59606;52.138;5.424;2024-01-27T07:30:37;103597.16;;;0.91;100.00
71772;BME280;59606;52.138;5.424;2024-01-27T07:33:04;103597.16;;;0.91;100.00
71772;BME280;59606;52.138;5.424;2024-01-27T07:35:31;103598.88;;;0.91;100.00
71772;BME280;59606;52.138;5.424;2024-01-27T07:37:58;103596.25;;;0.89;100.00
71772;BME280;59606;52.138;5.424;2024-01-27T07:40:24;103599.66;;;0.90;100.00
71772;BME280;59606;52.138;5.424;2024-01-27T07:42:51;103599.66;;;0.90;100.00
71772;BME280;59606;52.138;5.424;2024-01-27T07:45:18;103604.00;;;0.91;100.00
71772;BME280;59606;52.138;5.424;2024-01-27T07:47:44;103606.56;;;0.91;100.00
71772;BME280;59606;52.138;5.424;2024-01-27T07:50:11;103607.47;;;0.93;100.00
71772;BME280;59606;52.138;5.424;2024-01-27T07:52:38;103610.91;;;0.93;100.00
71772;BME280;59606;52.138;5.424;2024-01-27T07:55:04;103612.66;;;0.94;100.00
71772;BME280;59606;52.138;5.424;2024-01-27T07:57:31;103617.88;;;0.98;100.00
71772;BME280;59606;52.138;5.424;2024-01-27T07:59:58;103620.47;;;0.99;100.00
71772;BME280;59606;52.138;5.424;2024-01-27T08:02:25;103612.00;;;1.02;100.00
71772;BME280;59606;52.138;5.424;2024-01-27T08:04:53;103608.69;;;1.06;100.00
71772;BME280;59606;52.138;5.424;2024-01-27T08:07:19;103617.44;;;1.11;100.00
71772;BME280;59606;52.138;5.424;2024-01-27T08:09:46;103624.38;;;1.15;100.00
71772;BME280;59606;52.138;5.424;2024-01-27T08:12:13;103622.00;;;1.21;100.00
71772;BME280;59606;52.138;5.424;2024-01-27T08:14:39;103622.13;;;1.26;100.00
71772;BME280;59606;52.138;5.424;2024-01-27T08:17:06;103619.66;;;1.30;100.00
71772;BME280;59606;52.138;5.424;2024-01-27T08:19:33;103617.28;;;1.36;100.00
71772;BME280;59606;52.138;5.424;2024-01-27T08:22:00;103615.72;;;1.41;100.00
71772;BME280;59606;52.138;5.424;2024-01-27T08:24:26;103626.13;;;1.46;100.00
71772;BME280;59606;52.138;5.424;2024-01-27T08:26:53;103627.22;;;1.54;100.00
71772;BME280;59606;52.138;5.424;2024-01-27T08:29:19;103629.03;;;1.58;100.00
71772;BME280;59606;52.138;5.424;2024-01-27T08:31:46;103626.66;;;1.66;100.00
71772;BME280;59606;52.138;5.424;2024-01-27T08:34:13;103625.03;;;1.68;100.00
71772;BME280;59606;52.138;5.424;2024-01-27T08:36:40;103629.41;;;1.72;100.00
71772;BME280;59606;52.138;5.424;2024-01-27T08:39:07;103624.44;;;1.78;100.00
71772;BME280;59606;52.138;5.424;2024-01-27T08:41:34;103625.47;;;1.85;100.00
71772;BME280;59606;52.138;5.424;2024-01-27T08:44:01;103623.88;;;1.90;100.00
71772;BME280;59606;52.138;5.424;2024-01-27T08:46:27;103618.88;;;1.95;100.00
71772;BME280;59606;52.138;5.424;2024-01-27T08:48:54;103627.56;;;2.00;100.00
71772;BME280;59606;52.138;5.424;2024-01-27T08:51:20;103633.72;;;2.06;100.00
71772;BME280;59606;52.138;5.424;2024-01-27T08:53:47;103621.88;;;2.11;100.00
71772;BME280;59606;52.138;5.424;2024-01-27T08:56:17;103616.84;;;2.16;100.00
71772;BME280;59606;52.138;5.424;2024-01-27T08:58:44;103623.00;;;2.23;100.00
71772;BME280;59606;52.138;5.424;2024-01-27T09:01:11;103626.63;;;2.31;100.00
71772;BME280;59606;52.138;5.424;2024-01-27T09:03:41;103627.63;;;2.36;100.00
71772;BME280;59606;52.138;5.424;2024-01-27T09:06:07;103628.56;;;2.40;100.00
71772;BME280;59606;52.138;5.424;2024-01-27T09:08:34;103626.91;;;2.42;100.00
71772;BME280;59606;52.138;5.424;2024-01-27T09:11:04;103629.53;;;2.45;100.00
71772;BME280;59606;52.138;5.424;2024-01-27T09:13:31;103632.94;;;2.44;100.00
71772;BME280;59606;52.138;5.424;2024-01-27T09:15:59;103630.41;;;2.45;100.00
71772;BME280;59606;52.138;5.424;2024-01-27T09:18:26;103623.56;;;2.46;100.00
71772;BME280;59606;52.138;5.424;2024-01-27T09:20:55;103634.88;;;2.52;100.00
71772;BME280;59606;52.138;5.424;2024-01-27T09:23:22;103637.44;;;2.52;100.00
71772;BME280;59606;52.138;5.424;2024-01-27T09:25:49;103636.59;;;2.53;100.00
71772;BME280;59606;52.138;5.424;2024-01-27T09:28:16;103631.50;;;2.55;100.00
71772;BME280;59606;52.138;5.424;2024-01-27T09:30:43;103636.69;;;2.58;100.00
71772;BME280;59606;52.138;5.424;2024-01-27T09:33:11;103633.41;;;2.64;100.00
71772;BME280;59606;52.138;5.424;2024-01-27T09:35:38;103644.78;;;2.73;100.00
71772;BME280;59606;52.138;5.424;2024-01-27T09:38:05;103644.09;;;2.80;100.00
71772;BME280;59606;52.138;5.424;2024-01-27T09:40:34;103649.31;;;2.83;100.00
71772;BME280;59606;52.138;5.424;2024-01-27T09:43:00;103655.44;;;2.89;100.00
71772;BME280;59606;52.138;5.424;2024-01-27T09:45:27;103664.84;;;2.88;100.00
71772;BME280;59606;52.138;5.424;2024-01-27T09:47:56;103660.69;;;2.93;100.00
71772;BME280;59606;52.138;5.424;2024-01-27T09:50:24;103671.19;;;3.02;100.00
71772;BME280;59606;52.138;5.424;2024-01-27T09:52:52;103673.94;;;3.10;100.00
71772;BME280;59606;52.138;5.424;2024-01-27T09:55:19;103683.53;;;3.17;100.00
71772;BME280;59606;52.138;5.424;2024-01-27T09:57:46;103682.03;;;3.27;100.00
71772;BME280;59606;52.138;5.424;2024-01-27T10:00:13;103683.06;;;3.35;100.00
71772;BME280;59606;52.138;5.424;2024-01-27T10:02:45;103689.19;;;3.42;100.00
71772;BME280;59606;52.138;5.424;2024-01-27T10:05:13;103691.09;;;3.49;100.00
71772;BME280;59606;52.138;5.424;2024-01-27T10:07:39;103692.09;;;3.57;100.00
71772;BME280;59606;52.138;5.424;2024-01-27T10:10:06;103693.09;;;3.64;100.00
71772;BME280;59606;52.138;5.424;2024-01-27T10:12:40;103688.94;;;3.70;100.00
71772;BME280;59606;52.138;5.424;2024-01-27T10:15:18;103689.94;;;3.77;100.00
71772;BME280;59606;52.138;5.424;2024-01-27T10:17:45;103682.38;;;3.86;100.00
71772;BME280;59606;52.138;5.424;2024-01-27T10:20:12;103690.19;;;3.91;100.00
71772;BME280;59606;52.138;5.424;2024-01-27T10:22:42;103684.28;;;3.96;100.00
71772;BME280;59606;52.138;5.424;2024-01-27T10:25:11;103690.44;;;4.03;100.00
71772;BME280;59606;52.138;5.424;2024-01-27T10:27:38;103697.38;;;4.09;100.00
71772;BME280;59606;52.138;5.424;2024-01-27T10:30:05;103693.25;;;4.17;100.00
71772;BME280;59606;52.138;5.424;2024-01-27T10:32:34;103697.69;;;4.24;100.00
71772;BME280;59606;52.138;5.424;2024-01-27T10:35:05;103697.72;;;4.27;100.00
71772;BME280;59606;52.138;5.424;2024-01-27T10:37:35;103709.03;;;4.34;100.00
71772;BME280;59606;52.138;5.424;2024-01-27T10:40:06;103704.78;;;4.37;100.00
71772;BME280;59606;52.138;5.424;2024-01-27T10:42:37;103708.34;;;4.45;100.00
71772;BME280;59606;52.138;5.424;2024-01-27T10:45:07;103703.28;;;4.50;100.00
71772;BME280;59606;52.138;5.424;2024-01-27T10:47:34;103705.06;;;4.54;100.00
71772;BME280;59606;52.138;5.424;2024-01-27T10:50:01;103693.94;;;4.57;100.00
71772;BME280;59606;52.138;5.424;2024-01-27T10:52:31;103688.84;;;4.61;100.00
71772;BME280;59606;52.138;5.424;2024-01-27T10:54:59;103689.84;;;4.69;100.00
71772;BME280;59606;52.138;5.424;2024-01-27T10:57:29;103677.84;;;4.75;100.00
71772;BME280;59606;52.138;5.424;2024-01-27T10:59:57;103665.91;;;4.81;100.00
71772;BME280;59606;52.138;5.424;2024-01-27T11:02:24;103665.94;;;4.84;100.00
71772;BME280;59606;52.138;5.424;2024-01-27T11:04:51;103667.75;;;4.90;100.00
71772;BME280;59606;52.138;5.424;2024-01-27T11:07:21;103669.50;;;4.92;100.00
71772;BME280;59606;52.138;5.424;2024-01-27T11:09:51;103670.41;;;4.94;100.00
71772;BME280;59606;52.138;5.424;2024-01-27T11:12:19;103673.03;;;4.99;100.00
71772;BME280;59606;52.138;5.424;2024-01-27T11:14:47;103674.84;;;5.03;100.00
71772;BME280;59606;52.138;5.424;2024-01-27T11:17:15;103664.53;;;5.06;100.00
71772;BME280;59606;52.138;5.424;2024-01-27T11:19:44;103670.63;;;5.11;100.00
71772;BME280;59606;52.138;5.424;2024-01-27T11:22:31;103674.19;;;5.19;100.00
71772;BME280;59606;52.138;5.424;2024-01-27T11:27:35;103669.13;;;5.29;100.00
71772;BME280;59606;52.138;5.424;2024-01-27T11:30:03;103671.81;;;5.36;100.00
71772;BME280;59606;52.138;5.424;2024-01-27T11:32:30;103665.91;;;5.43;100.00
71772;BME280;59606;52.138;5.424;2024-01-27T11:35:00;103668.53;;;5.48;100.00
71772;BME280;59606;52.138;5.424;2024-01-27T11:37:30;103659.13;;;5.55;100.00
71772;BME280;59606;52.138;5.424;2024-01-27T11:40:04;103660.88;;;5.57;100.00
71772;BME280;59606;52.138;5.424;2024-01-27T11:42:32;103662.66;;;5.61;100.00
71772;BME280;59606;52.138;5.424;2024-01-27T11:44:59;103655.78;;;5.66;100.00
71772;BME280;59606;52.138;5.424;2024-01-27T11:47:26;103650.69;;;5.71;100.00
71772;BME280;59606;52.138;5.424;2024-01-27T11:49:54;103649.00;;;5.75;100.00
71772;BME280;59606;52.138;5.424;2024-01-27T11:52:24;103649.03;;;5.78;100.00
71772;BME280;59606;52.138;5.424;2024-01-27T11:54:58;103640.44;;;5.80;100.00
71772;BME280;59606;52.138;5.424;2024-01-27T11:57:26;103633.59;;;5.85;100.00
71772;BME280;59606;52.138;5.424;2024-01-27T11:59:54;103641.41;;;5.91;100.00
71772;BME280;59606;52.138;5.424;2024-01-27T12:02:21;103636.34;;;5.98;100.00
71772;BME280;59606;52.138;5.424;2024-01-27T12:04:48;103633.75;;;5.98;100.00
71772;BME280;59606;52.138;5.424;2024-01-27T12:07:16;103632.91;;;6.03;100.00
71772;BME280;59606;52.138;5.424;2024-01-27T12:09:46;103633.81;;;6.05;100.00
71772;BME280;59606;52.138;5.424;2024-01-27T12:12:14;103645.06;;;6.07;100.00
71772;BME280;59606;52.138;5.424;2024-01-27T12:14:44;103638.13;;;6.06;100.00
71772;BME280;59606;52.138;5.424;2024-01-27T12:17:11;103639.00;;;6.08;100.00
71772;BME280;59606;52.138;5.424;2024-01-27T12:19:38;103632.13;;;6.10;100.00
71772;BME280;59606;52.138;5.424;2024-01-27T12:22:21;103630.41;;;6.12;100.00
71772;BME280;59606;52.138;5.424;2024-01-27T12:24:48;103625.25;;;6.16;100.00
71772;BME280;59606;52.138;5.424;2024-01-27T12:27:18;103626.16;;;6.18;100.00
71772;BME280;59606;52.138;5.424;2024-01-27T12:29:49;103615.84;;;6.24;100.00
71772;BME280;59606;52.138;5.424;2024-01-27T12:32:17;103614.13;;;6.24;100.00
71772;BME280;59606;52.138;5.424;2024-01-27T12:34:44;103614.16;;;6.29;100.00
71772;BME280;59606;52.138;5.424;2024-01-27T12:37:15;103609.88;;;6.32;100.00
71772;BME280;59606;52.138;5.424;2024-01-27T12:39:45;103613.34;;;6.34;100.00
71772;BME280;59606;52.138;5.424;2024-01-27T12:42:12;103620.25;;;6.37;100.00
71772;BME280;59606;52.138;5.424;2024-01-27T12:44:39;103621.13;;;6.36;100.00
71772;BME280;59606;52.138;5.424;2024-01-27T12:47:06;103631.50;;;6.37;100.00
71772;BME280;59606;52.138;5.424;2024-01-27T12:49:33;103634.09;;;6.39;100.00
71772;BME280;59606;52.138;5.424;2024-01-27T12:52:00;103632.38;;;6.41;100.00